createdAt,value
2023-03-21T00:00:26.924Z,100004.66
2023-03-21T00:01:12.843Z,100000.69
2023-03-21T00:01:54.889Z,100000.53
2023-03-21T00:02:36.607Z,99993.47
2023-03-21T00:03:18.327Z,100008.16
2023-03-21T00:04:00.440Z,100020.53
2023-03-21T00:05:51.812Z,100003.88
2023-03-21T00:06:33.616Z,100002.88
2023-03-21T00:07:15.502Z,100012.13
2023-03-21T00:07:57.148Z,100011.97
2023-03-21T00:08:40.216Z,100002.41
2023-03-21T00:09:22.201Z,100010.47
2023-03-21T00:10:14.386Z,100021.06
2023-03-21T00:11:01.250Z,100010.66
2023-03-21T00:11:42.971Z,100012.63
2023-03-21T00:12:24.648Z,99993.81
2023-03-21T00:13:06.367Z,100001.56
2023-03-21T00:13:48.343Z,100015.44
2023-03-21T00:14:30.871Z,100013.78
2023-03-21T00:15:12.975Z,100001.75
2023-03-21T00:16:05.210Z,100007.84
2023-03-21T00:18:03.742Z,100005.34
2023-03-21T00:18:52.684Z,100017.19
2023-03-21T00:19:38.557Z,100008.47
2023-03-21T00:20:20.720Z,99995.41
2023-03-21T00:21:37.774Z,100012.41
2023-03-21T00:22:08.906Z,99995.88
2023-03-21T00:22:52.337Z,99990.91
2023-03-21T00:23:34.231Z,100008.72
2023-03-21T00:24:16.464Z,99997.66
2023-03-21T00:24:58.136Z,100003.28
2023-03-21T00:25:40.207Z,99991.88
2023-03-21T00:26:22.559Z,100003.13
2023-03-21T00:27:26.870Z,99997.03
2023-03-21T00:28:08.597Z,100002.50
2023-03-21T00:28:50.928Z,99980.41
2023-03-21T00:29:35.534Z,100004.84
2023-03-21T00:30:17.505Z,99998.41
2023-03-21T00:31:00.367Z,100002.38
2023-03-21T00:31:42.193Z,100011.47
2023-03-21T00:32:24.289Z,99989.69
2023-03-21T00:33:19.818Z,99970.56
2023-03-21T00:34:03.724Z,99999.78
2023-03-21T00:34:59.668Z,99990.00
2023-03-21T00:35:58.324Z,99978.63
2023-03-21T00:36:44.076Z,99971.19
2023-03-21T00:37:28.310Z,99982.09
2023-03-21T00:38:10.779Z,99991.00
2023-03-21T00:38:52.768Z,99985.75
2023-03-21T00:39:35.373Z,99993.81
2023-03-21T00:40:26.593Z,99974.50
2023-03-21T00:41:25.804Z,99972.03
2023-03-21T00:42:07.868Z,99987.06
2023-03-21T00:42:51.823Z,99988.34
2023-03-21T00:43:33.911Z,99989.19
2023-03-21T00:44:16.266Z,99978.13
2023-03-21T00:44:57.920Z,99996.28
2023-03-21T00:45:39.564Z,99989.84
2023-03-21T00:46:23.295Z,99992.34
2023-03-21T00:47:07.807Z,99966.09
2023-03-21T00:47:50.537Z,99978.47
2023-03-21T00:48:32.420Z,99979.13
2023-03-21T00:49:14.595Z,99972.53
2023-03-21T00:49:57.400Z,99989.34
2023-03-21T00:50:39.816Z,99987.69
2023-03-21T00:51:26.419Z,99973.84
2023-03-21T00:52:18.718Z,99982.78
2023-03-21T00:53:07.118Z,99982.09
2023-03-21T00:53:48.753Z,99972.34
2023-03-21T00:54:30.590Z,99971.19
2023-03-21T00:55:18.205Z,99988.88
2023-03-21T00:55:59.881Z,99971.38
2023-03-21T00:56:41.564Z,99973.34
2023-03-21T00:57:37.527Z,99973.34
2023-03-21T00:58:21.488Z,99978.75
2023-03-21T00:59:04.492Z,99981.72
2023-03-21T00:59:46.193Z,99962.91
2023-03-21T01:00:27.992Z,99955.97
2023-03-21T01:01:11.098Z,99966.50
2023-03-21T01:01:54.469Z,99972.44
2023-03-21T01:02:37.916Z,99972.94
2023-03-21T01:03:24.771Z,99962.56
2023-03-21T01:04:13.237Z,99971.16
2023-03-21T01:04:55.014Z,99955.97
2023-03-21T01:06:13.490Z,99960.91
2023-03-21T01:06:55.526Z,99957.75
2023-03-21T01:07:37.215Z,99950.66
2023-03-21T01:08:26.794Z,99961.88
2023-03-21T01:09:17.262Z,99968.81
2023-03-21T01:09:58.941Z,99942.69
2023-03-21T01:10:43.148Z,99965.13
2023-03-21T01:11:27.189Z,99956.25
2023-03-21T01:12:08.909Z,99966.81
2023-03-21T01:12:52.105Z,99962.38
2023-03-21T01:13:36.396Z,99953.94
2023-03-21T01:14:23.495Z,99963.69
2023-03-21T01:15:07.222Z,99965.13
2023-03-21T01:15:54.496Z,99960.50
2023-03-21T01:16:37.266Z,99962.16
2023-03-21T01:17:18.989Z,99936.78
2023-03-21T01:18:01.168Z,99957.41
2023-03-21T01:18:42.994Z,99937.94
2023-03-21T01:19:44.168Z,99960.72
2023-03-21T01:20:30.227Z,99939.78
2023-03-21T01:21:13.952Z,99933.53
2023-03-21T01:21:56.084Z,99945.41
2023-03-21T01:22:38.848Z,99948.72
2023-03-21T01:23:20.627Z,99946.59
2023-03-21T01:24:02.883Z,99941.66
2023-03-21T01:24:53.796Z,99947.25
2023-03-21T01:25:37.387Z,99956.66
2023-03-21T01:26:19.734Z,99945.09
2023-03-21T01:27:02.672Z,99951.72
2023-03-21T01:27:44.435Z,99957.00
2023-03-21T01:28:28.211Z,99950.06
2023-03-21T01:29:10.115Z,99953.69
2023-03-21T01:29:51.771Z,99953.38
2023-03-21T01:30:40.202Z,99929.31
2023-03-21T01:31:23.548Z,99916.75
2023-03-21T01:32:06.137Z,99936.38
2023-03-21T01:32:48.030Z,99933.06
2023-03-21T01:33:30.836Z,99956.03
2023-03-21T01:34:12.580Z,99957.03
2023-03-21T01:34:54.585Z,99947.59
2023-03-21T01:35:49.174Z,99936.91
2023-03-21T01:36:35.405Z,99942.00
2023-03-21T01:37:21.320Z,99941.66
2023-03-21T01:38:05.484Z,99956.03
2023-03-21T01:38:48.023Z,99948.09
2023-03-21T01:39:29.845Z,99953.38
2023-03-21T01:40:18.039Z,99939.84
2023-03-21T01:41:17.082Z,99953.03
2023-03-21T01:42:01.627Z,99923.84
2023-03-21T01:42:43.836Z,99952.88
2023-03-21T01:43:34.376Z,99949.41
2023-03-21T01:44:19.244Z,99942.16
2023-03-21T01:45:05.224Z,99939.03
2023-03-21T01:46:21.368Z,99944.28
2023-03-21T01:47:21.420Z,99944.81
2023-03-21T01:48:39.540Z,99940.84
2023-03-21T01:49:38.678Z,99941.50
2023-03-21T01:50:27.588Z,99935.41
2023-03-21T01:51:50.767Z,99931.41
2023-03-21T01:52:39.415Z,99900.72
2023-03-21T01:53:30.089Z,99937.88
2023-03-21T01:54:17.058Z,99919.72
2023-03-21T01:55:00.470Z,99920.22
2023-03-21T01:55:43.324Z,99928.31
2023-03-21T01:56:47.883Z,99923.50
2023-03-21T01:57:45.090Z,99918.88
2023-03-21T01:58:31.982Z,99936.34
2023-03-21T01:59:23.855Z,99927.94
2023-03-21T02:00:36.512Z,99917.06
2023-03-21T02:01:34.626Z,99898.56
2023-03-21T02:02:28.355Z,99928.91
2023-03-21T02:03:38.494Z,99924.41
2023-03-21T02:04:40.984Z,99925.56
2023-03-21T02:05:48.744Z,99918.44
2023-03-21T02:06:37.293Z,99931.28
2023-03-21T02:07:36.749Z,99914.59
2023-03-21T02:08:23.983Z,99919.19
2023-03-21T02:09:14.791Z,99923.16
2023-03-21T02:09:58.697Z,99927.28
2023-03-21T02:10:43.984Z,99914.56
2023-03-21T02:11:29.911Z,99924.31
2023-03-21T02:12:12.065Z,99920.63
2023-03-21T02:12:55.679Z,99923.94
2023-03-21T02:13:37.899Z,99906.28
2023-03-21T02:14:28.903Z,99898.03
2023-03-21T02:15:31.620Z,99914.84
2023-03-21T02:16:52.344Z,99913.34
2023-03-21T02:17:44.722Z,99888.13
2023-03-21T02:18:47.842Z,99918.44
2023-03-21T02:20:22.280Z,99919.06
2023-03-21T02:21:20.301Z,99919.91
2023-03-21T02:22:33.189Z,99912.13
2023-03-21T02:24:07.950Z,99916.66
2023-03-21T02:25:32.790Z,99910.63
2023-03-21T02:27:04.047Z,99902.72
2023-03-21T02:28:11.636Z,99906.72
2023-03-21T02:29:15.453Z,99890.75
2023-03-21T02:30:26.486Z,99902.13
2023-03-21T02:31:36.367Z,99894.56
2023-03-21T02:32:38.220Z,99894.06
2023-03-21T02:33:37.780Z,99899.69
2023-03-21T02:34:53.145Z,99902.50
2023-03-21T02:35:56.825Z,99899.19
2023-03-21T02:37:05.691Z,99894.75
2023-03-21T02:38:00.654Z,99882.38
2023-03-21T02:38:47.447Z,99898.03
2023-03-21T02:39:36.942Z,99888.31
2023-03-21T02:40:32.296Z,99911.09
2023-03-21T02:41:40.197Z,99902.16
2023-03-21T02:42:28.347Z,99903.66
2023-03-21T02:43:26.576Z,99912.88
2023-03-21T02:44:44.620Z,99891.72
2023-03-21T02:45:38.756Z,99900.47
2023-03-21T02:46:42.905Z,99805.47
2023-03-21T02:47:34.834Z,99882.34
2023-03-21T02:48:44.410Z,99880.69
2023-03-21T02:49:38.318Z,99897.22
2023-03-21T02:50:27.607Z,99903.47
2023-03-21T02:51:14.545Z,99891.44
2023-03-21T02:52:05.483Z,99894.75
2023-03-21T02:52:57.490Z,99892.91
2023-03-21T02:53:43.868Z,99897.38
2023-03-21T02:54:41.836Z,99896.19
2023-03-21T02:55:32.040Z,99888.47
2023-03-21T02:56:20.030Z,99900.84
2023-03-21T02:57:08.199Z,99903.31
2023-03-21T02:57:52.482Z,99897.38
2023-03-21T02:58:35.297Z,99907.59
2023-03-21T02:59:21.461Z,99906.44
2023-03-21T03:00:16.283Z,99896.84
2023-03-21T03:01:00.505Z,99892.91
2023-03-21T03:01:47.373Z,99901.97
2023-03-21T03:02:30.818Z,99893.91
2023-03-21T03:03:24.828Z,99903.78
2023-03-21T03:04:27.408Z,99909.06
2023-03-21T03:05:21.349Z,99895.22
2023-03-21T03:06:17.053Z,99902.16
2023-03-21T03:07:44.457Z,99904.00
2023-03-21T03:09:23.939Z,99912.47
2023-03-21T03:10:27.257Z,99899.25
2023-03-21T03:11:14.880Z,99902.25
2023-03-21T03:12:11.193Z,99889.16
2023-03-21T03:13:13.047Z,99890.16
2023-03-21T03:14:38.452Z,99904.22
2023-03-21T03:15:33.391Z,99896.47
2023-03-21T03:16:37.016Z,99900.09
2023-03-21T03:17:39.242Z,99894.81
2023-03-21T03:18:29.405Z,99883.06
2023-03-21T03:19:41.675Z,99894.47
2023-03-21T03:20:39.119Z,99894.78
2023-03-21T03:21:39.764Z,99887.38
2023-03-21T03:22:34.561Z,99894.63
2023-03-21T03:23:28.049Z,99885.34
2023-03-21T03:24:48.333Z,99882.38
2023-03-21T03:25:43.822Z,99878.25
2023-03-21T03:26:37.065Z,99878.13
2023-03-21T03:27:27.007Z,99867.56
2023-03-21T03:28:09.573Z,99877.78
2023-03-21T03:28:56.101Z,99887.69
2023-03-21T03:29:42.368Z,99885.88
2023-03-21T03:30:39.237Z,99892.00
2023-03-21T03:31:28.251Z,99887.03
2023-03-21T03:32:18.194Z,99879.59
2023-03-21T03:33:03.091Z,99856.66
2023-03-21T03:33:48.226Z,99873.81
2023-03-21T03:34:34.894Z,99889.00
2023-03-21T03:35:20.140Z,99885.53
2023-03-21T03:36:06.522Z,99841.00
2023-03-21T03:36:56.235Z,99880.28
2023-03-21T03:37:40.702Z,99883.09
2023-03-21T03:38:24.091Z,99888.03
2023-03-21T03:39:12.482Z,99866.75
2023-03-21T03:40:01.747Z,99878.13
2023-03-21T03:40:49.034Z,99886.88
2023-03-21T03:42:12.627Z,99876.50
2023-03-21T03:43:08.964Z,99889.66
2023-03-21T03:43:57.805Z,99884.09
2023-03-21T03:44:42.021Z,99875.84
2023-03-21T03:45:31.376Z,99891.66
2023-03-21T03:46:24.173Z,99878.13
2023-03-21T03:47:22.964Z,99876.31
2023-03-21T03:48:26.290Z,99884.41
2023-03-21T03:49:15.430Z,99873.19
2023-03-21T03:50:09.548Z,99883.91
2023-03-21T03:51:22.908Z,99879.75
2023-03-21T03:52:32.449Z,99886.38
2023-03-21T03:53:30.467Z,99887.38
2023-03-21T03:54:18.813Z,99892.66
2023-03-21T03:55:00.828Z,99877.13
2023-03-21T03:55:47.429Z,99870.34
2023-03-21T03:56:31.749Z,99878.78
2023-03-21T03:57:14.566Z,99887.69
2023-03-21T03:57:56.874Z,99870.19
2023-03-21T03:58:45.673Z,99882.41
2023-03-21T03:59:29.764Z,99886.03
2023-03-21T04:00:27.564Z,99891.31
2023-03-21T04:01:09.471Z,99880.09
2023-03-21T04:01:51.896Z,99880.41
2023-03-21T04:02:33.926Z,99891.63
2023-03-21T04:03:18.596Z,99889.81
2023-03-21T04:04:12.243Z,99883.03
2023-03-21T04:04:57.841Z,99867.09
2023-03-21T04:05:39.753Z,99866.88
2023-03-21T04:06:22.151Z,99890.16
2023-03-21T04:07:06.364Z,99887.50
2023-03-21T04:07:50.918Z,99895.63
2023-03-21T04:08:37.592Z,99868.41
2023-03-21T04:09:23.550Z,99891.50
2023-03-21T04:10:11.171Z,99894.97
2023-03-21T04:10:56.573Z,99852.56
2023-03-21T04:11:38.999Z,99870.06
2023-03-21T04:12:21.074Z,99881.44
2023-03-21T04:13:41.350Z,99894.94
2023-03-21T04:14:33.179Z,99894.78
2023-03-21T04:15:20.700Z,99882.28
2023-03-21T04:16:09.582Z,99890.84
2023-03-21T04:16:52.182Z,99878.63
2023-03-21T04:17:34.570Z,99901.41
2023-03-21T04:18:16.419Z,99888.34
2023-03-21T04:18:58.975Z,99890.16
2023-03-21T04:19:40.689Z,99893.81
2023-03-21T04:20:34.221Z,99880.09
2023-03-21T04:21:18.689Z,99878.13
2023-03-21T04:22:00.483Z,99868.41
2023-03-21T04:22:42.509Z,99878.97
2023-03-21T04:23:24.358Z,99863.94
2023-03-21T04:24:07.436Z,99865.25
2023-03-21T04:24:49.198Z,99872.03
2023-03-21T04:25:34.830Z,99864.59
2023-03-21T04:26:21.114Z,99882.22
2023-03-21T04:27:22.910Z,99874.78
2023-03-21T04:28:22.138Z,99863.56
2023-03-21T04:29:24.171Z,99880.41
2023-03-21T04:30:26.244Z,99850.22
2023-03-21T04:31:25.622Z,99873.97
2023-03-21T04:32:17.749Z,99881.06
2023-03-21T04:33:05.970Z,99860.78
2023-03-21T04:33:50.025Z,99864.59
2023-03-21T04:34:32.054Z,99887.00
2023-03-21T04:35:16.714Z,99865.41
2023-03-21T04:35:59.340Z,99854.03
2023-03-21T04:36:47.822Z,99872.66
2023-03-21T04:37:33.841Z,99888.69
2023-03-21T04:38:16.389Z,99864.09
2023-03-21T04:39:01.559Z,99880.09
2023-03-21T04:39:46.384Z,99861.97
2023-03-21T04:40:28.274Z,99835.88
2023-03-21T04:41:10.727Z,99862.63
2023-03-21T04:41:52.444Z,99868.41
2023-03-21T04:42:35.323Z,99881.13
2023-03-21T04:43:17.230Z,99880.47
2023-03-21T04:43:58.956Z,99877.81
2023-03-21T04:44:41.355Z,99883.09
2023-03-21T04:45:23.416Z,99858.00
2023-03-21T04:46:06.273Z,99862.44
2023-03-21T04:46:48.005Z,99881.44
2023-03-21T04:47:30.318Z,99866.38
2023-03-21T04:48:14.259Z,99851.72
2023-03-21T04:48:56.053Z,99868.19
2023-03-21T04:49:37.742Z,99868.56
2023-03-21T04:50:19.593Z,99867.75
2023-03-21T04:51:01.263Z,99859.31
2023-03-21T04:51:45.184Z,99866.22
2023-03-21T04:52:30.034Z,99863.44
2023-03-21T04:53:12.445Z,99869.84
2023-03-21T04:53:57.467Z,99836.88
2023-03-21T04:54:39.302Z,99874.13
2023-03-21T04:55:21.650Z,99863.28
2023-03-21T04:56:03.728Z,99845.13
2023-03-21T04:56:45.531Z,99870.22
2023-03-21T04:57:27.780Z,99852.56
2023-03-21T04:58:09.489Z,99861.75
2023-03-21T04:58:51.329Z,99849.72
2023-03-21T04:59:34.048Z,99851.72
2023-03-21T05:00:16.756Z,99867.91
2023-03-21T05:00:58.448Z,99870.06
2023-03-21T05:01:43.604Z,99872.19
2023-03-21T05:02:25.629Z,99869.03
2023-03-21T05:03:09.127Z,99870.03
2023-03-21T05:03:51.141Z,99855.69
2023-03-21T05:04:32.821Z,99864.59
2023-03-21T05:05:14.758Z,99852.22
2023-03-21T05:05:56.531Z,99840.00
2023-03-21T05:06:38.326Z,99860.28
2023-03-21T05:07:20.188Z,99867.56
2023-03-21T05:08:02.064Z,99852.91
2023-03-21T05:08:44.134Z,99858.31
2023-03-21T05:09:27.866Z,99868.56
2023-03-21T05:10:12.005Z,99850.06
2023-03-21T05:10:55.381Z,99842.16
2023-03-21T05:11:41.188Z,99861.75
2023-03-21T05:12:23.772Z,99841.16
2023-03-21T05:13:05.648Z,99851.06
2023-03-21T05:13:48.270Z,99862.28
2023-03-21T05:14:30.261Z,99861.78
2023-03-21T05:15:13.514Z,99866.06
2023-03-21T05:15:55.466Z,99857.66
2023-03-21T05:16:45.139Z,99874.50
2023-03-21T05:17:28.512Z,99868.41
2023-03-21T05:18:12.258Z,99860.97
2023-03-21T05:19:13.910Z,99870.84
2023-03-21T05:19:56.963Z,99855.03
2023-03-21T05:20:43.031Z,99862.44
2023-03-21T05:21:29.396Z,99872.34
2023-03-21T05:22:14.259Z,99859.34
2023-03-21T05:22:56.825Z,99884.72
2023-03-21T05:23:38.881Z,99865.28
2023-03-21T05:24:22.303Z,99880.28
2023-03-21T05:25:06.417Z,99842.84
2023-03-21T05:26:11.431Z,99873.19
2023-03-21T05:27:03.998Z,99867.22
2023-03-21T05:27:54.262Z,99854.38
2023-03-21T05:28:40.214Z,99865.59
2023-03-21T05:29:22.555Z,99851.06
2023-03-21T05:30:18.193Z,99843.50
2023-03-21T05:31:04.110Z,99853.41
2023-03-21T05:31:46.240Z,99873.84
2023-03-21T05:32:29.862Z,99861.13
2023-03-21T05:33:12.649Z,99869.72
2023-03-21T05:33:54.426Z,99855.03
2023-03-21T05:34:36.201Z,99864.75
2023-03-21T05:35:18.006Z,99876.78
2023-03-21T05:36:00.021Z,99847.25
2023-03-21T05:36:45.336Z,99869.00
2023-03-21T05:37:28.353Z,99866.38
2023-03-21T05:38:10.821Z,99839.16
2023-03-21T05:39:03.770Z,99843.63
2023-03-21T05:39:48.852Z,99881.22
2023-03-21T05:40:47.689Z,99842.97
2023-03-21T05:41:29.623Z,99871.34
2023-03-21T05:42:12.736Z,99875.16
2023-03-21T05:42:54.561Z,99879.75
2023-03-21T05:43:38.250Z,99873.81
2023-03-21T05:44:20.239Z,99876.47
2023-03-21T05:45:02.163Z,99874.00
2023-03-21T05:45:48.173Z,99859.28
2023-03-21T05:46:31.456Z,99865.94
2023-03-21T05:47:15.364Z,99874.19
2023-03-21T05:48:00.260Z,99865.94
2023-03-21T05:48:46.735Z,99858.47
2023-03-21T05:49:31.739Z,99878.47
2023-03-21T05:50:16.036Z,99885.56
2023-03-21T05:51:04.127Z,99874.19
2023-03-21T05:51:45.830Z,99876.81
2023-03-21T05:52:29.585Z,99862.75
2023-03-21T05:53:11.653Z,99881.44
2023-03-21T05:53:53.353Z,99859.97
2023-03-21T05:54:36.522Z,99865.94
2023-03-21T05:55:19.576Z,99874.19
2023-03-21T05:56:01.526Z,99872.53
2023-03-21T05:57:09.506Z,99877.97
2023-03-21T05:58:09.685Z,99887.38
2023-03-21T05:58:51.574Z,99881.75
2023-03-21T05:59:34.189Z,99857.50
2023-03-21T06:00:17.963Z,99857.34
2023-03-21T06:01:10.227Z,99877.44
2023-03-21T06:01:55.492Z,99867.88
2023-03-21T06:02:37.824Z,99871.19
2023-03-21T06:03:24.001Z,99878.41
2023-03-21T06:04:16.186Z,99887.00
2023-03-21T06:04:58.386Z,99880.41
2023-03-21T06:05:40.967Z,99868.03
2023-03-21T06:06:28.381Z,99872.00
2023-03-21T06:07:12.132Z,99858.81
2023-03-21T06:07:55.518Z,99883.72
2023-03-21T06:08:37.718Z,99877.59
2023-03-21T06:09:22.589Z,99882.19
2023-03-21T06:10:10.402Z,99894.91
2023-03-21T06:11:00.958Z,99882.88
2023-03-21T06:11:48.634Z,99874.47
2023-03-21T06:12:33.121Z,99874.94
2023-03-21T06:13:21.550Z,99879.09
2023-03-21T06:14:04.029Z,99875.94
2023-03-21T06:14:46.084Z,99868.03
2023-03-21T06:15:35.713Z,99864.91
2023-03-21T06:16:28.828Z,99878.63
2023-03-21T06:17:10.652Z,99866.56
2023-03-21T06:17:58.590Z,99869.19
2023-03-21T06:18:40.987Z,99873.66
2023-03-21T06:19:35.883Z,99876.47
2023-03-21T06:20:22.097Z,99884.22
2023-03-21T06:21:07.934Z,99856.69
2023-03-21T06:21:49.847Z,99878.41
2023-03-21T06:22:32.478Z,99861.13
2023-03-21T06:23:15.835Z,99850.72
2023-03-21T06:23:57.958Z,99880.41
2023-03-21T06:24:39.656Z,99878.75
2023-03-21T06:25:21.792Z,99852.38
2023-03-21T06:26:04.151Z,99859.25
2023-03-21T06:26:48.393Z,99872.13
2023-03-21T06:27:30.436Z,99851.31
2023-03-21T06:28:12.089Z,99881.50
2023-03-21T06:28:55.836Z,99873.72
2023-03-21T06:29:38.780Z,99866.31
2023-03-21T06:30:22.792Z,99882.31
2023-03-21T06:31:18.531Z,99864.19
2023-03-21T06:32:00.673Z,99886.44
2023-03-21T06:32:42.517Z,99873.28
2023-03-21T06:33:28.317Z,99871.13
2023-03-21T06:34:11.788Z,99865.88
2023-03-21T06:34:53.938Z,99883.34
2023-03-21T06:35:36.044Z,99873.13
2023-03-21T06:36:19.202Z,99880.25
2023-03-21T06:37:01.179Z,99882.56
2023-03-21T06:37:49.222Z,99881.41
2023-03-21T06:38:31.735Z,99880.78
2023-03-21T06:39:13.878Z,99874.00
2023-03-21T06:39:56.278Z,99873.84
2023-03-21T06:40:39.296Z,99866.75
2023-03-21T06:41:21.333Z,99877.28
2023-03-21T06:42:14.598Z,99861.13
2023-03-21T06:42:56.568Z,99856.16
2023-03-21T06:43:39.198Z,99881.72
2023-03-21T06:44:22.093Z,99859.47
2023-03-21T06:45:11.919Z,99877.56
2023-03-21T06:45:53.712Z,99872.25
2023-03-21T06:46:36.151Z,99867.44
2023-03-21T06:47:18.580Z,99851.91
2023-03-21T06:48:01.568Z,99883.00
2023-03-21T06:48:57.365Z,99877.81
2023-03-21T06:49:41.089Z,99861.28
2023-03-21T06:50:25.194Z,99878.22
2023-03-21T06:51:07.415Z,99843.91
2023-03-21T06:51:52.731Z,99874.50
2023-03-21T06:52:35.816Z,99865.19
2023-03-21T06:53:20.964Z,99879.50
2023-03-21T06:54:25.783Z,99860.97
2023-03-21T06:55:28.898Z,99861.38
2023-03-21T06:56:14.378Z,99870.91
2023-03-21T06:56:56.884Z,99861.50
2023-03-21T06:57:42.998Z,99869.00
2023-03-21T06:58:25.104Z,99865.00
2023-03-21T06:59:08.507Z,99840.97
2023-03-21T07:00:08.854Z,99866.44
2023-03-21T07:00:54.819Z,99849.38
2023-03-21T07:01:37.499Z,99870.09
2023-03-21T07:02:22.043Z,99851.19
2023-03-21T07:03:24.552Z,99863.44
2023-03-21T07:04:06.474Z,99830.91
2023-03-21T07:04:48.940Z,99873.41
2023-03-21T07:05:37.193Z,99870.66
2023-03-21T07:06:19.758Z,99866.13
2023-03-21T07:07:01.493Z,99845.19
2023-03-21T07:07:43.626Z,99869.31
2023-03-21T07:08:25.690Z,99870.19
2023-03-21T07:09:07.673Z,99848.91
2023-03-21T07:09:49.742Z,99868.09
2023-03-21T07:10:32.208Z,99854.44
2023-03-21T07:11:21.222Z,99865.50
2023-03-21T07:12:03.571Z,99862.91
2023-03-21T07:13:01.253Z,99847.97
2023-03-21T07:13:57.478Z,99858.81
2023-03-21T07:14:39.210Z,99863.81
2023-03-21T07:15:21.099Z,99861.88
2023-03-21T07:16:03.005Z,99865.13
2023-03-21T07:16:44.798Z,99865.13
2023-03-21T07:17:28.290Z,99875.66
2023-03-21T07:18:12.177Z,99862.56
2023-03-21T07:18:54.329Z,99872.94
2023-03-21T07:19:36.130Z,99882.78
2023-03-21T07:20:18.007Z,99872.34
2023-03-21T07:20:59.817Z,99882.22
2023-03-21T07:21:41.451Z,99880.22
2023-03-21T07:22:23.201Z,99863.59
2023-03-21T07:23:05.226Z,99886.19
2023-03-21T07:23:47.361Z,99871.88
2023-03-21T07:24:30.804Z,99868.84
2023-03-21T07:25:12.672Z,99866.78
2023-03-21T07:25:55.871Z,99891.81
2023-03-21T07:26:37.748Z,99865.75
2023-03-21T07:27:21.241Z,99888.75
2023-03-21T07:28:03.041Z,99877.84
2023-03-21T07:28:45.643Z,99885.72
2023-03-21T07:29:27.331Z,99865.22
2023-03-21T07:30:10.826Z,99875.31
2023-03-21T07:30:58.284Z,99891.34
2023-03-21T07:31:40.598Z,99883.53
2023-03-21T07:32:22.893Z,99886.03
2023-03-21T07:33:05.893Z,99876.00
2023-03-21T07:33:47.956Z,99873.81
2023-03-21T07:34:33.170Z,99870.13
2023-03-21T07:35:18.378Z,99882.66
2023-03-21T07:36:00.636Z,99888.06
2023-03-21T07:36:42.887Z,99872.50
2023-03-21T07:37:24.723Z,99890.34
2023-03-21T07:38:07.331Z,99873.13
2023-03-21T07:38:49.220Z,99880.53
2023-03-21T07:39:36.453Z,99888.78
2023-03-21T07:40:18.659Z,99876.06
2023-03-21T07:41:00.890Z,99902.13
2023-03-21T07:41:46.135Z,99893.34
2023-03-21T07:42:40.817Z,99900.13
2023-03-21T07:43:23.022Z,99893.34
2023-03-21T07:44:55.040Z,99895.41
2023-03-21T07:45:37.077Z,99893.19
2023-03-21T07:46:22.567Z,99904.88
2023-03-21T07:47:06.001Z,99900.38
2023-03-21T07:47:48.970Z,99901.00
2023-03-21T07:48:31.991Z,99907.75
2023-03-21T07:49:15.875Z,99898.53
2023-03-21T07:49:57.723Z,99886.81
2023-03-21T07:50:40.780Z,99877.00
2023-03-21T07:51:22.460Z,99902.00
2023-03-21T07:52:05.118Z,99892.78
2023-03-21T07:52:47.820Z,99897.31
2023-03-21T07:53:29.661Z,99897.50
2023-03-21T07:54:11.404Z,99890.56
2023-03-21T07:54:53.432Z,99900.41
2023-03-21T07:55:35.733Z,99882.53
2023-03-21T07:56:17.652Z,99903.84
2023-03-21T07:56:59.380Z,99903.81
2023-03-21T07:57:41.334Z,99903.31
2023-03-21T07:58:24.665Z,99897.09
2023-03-21T07:59:07.369Z,99897.25
2023-03-21T07:59:49.285Z,99898.84
2023-03-21T08:00:31.147Z,99911.53
2023-03-21T08:01:13.047Z,99913.53
2023-03-21T08:01:54.965Z,99903.63
2023-03-21T08:02:36.800Z,99886.56
2023-03-21T08:03:18.685Z,99898.75
2023-03-21T08:04:00.415Z,99916.59
2023-03-21T08:04:42.284Z,99918.28
2023-03-21T08:05:29.245Z,99909.22
2023-03-21T08:06:11.438Z,99906.84
2023-03-21T08:06:53.516Z,99918.56
2023-03-21T08:07:35.574Z,99918.34
2023-03-21T08:08:17.452Z,99898.88
2023-03-21T08:08:59.467Z,99894.59
2023-03-21T08:09:43.514Z,99904.41
2023-03-21T08:10:25.825Z,99912.50
2023-03-21T08:11:07.992Z,99899.56
2023-03-21T08:11:49.781Z,99912.84
2023-03-21T08:12:31.511Z,99919.31
2023-03-21T08:13:13.625Z,99912.22
2023-03-21T08:13:56.307Z,99898.63
2023-03-21T08:14:38.105Z,99895.44
2023-03-21T08:15:20.280Z,99911.94
2023-03-21T08:16:01.954Z,99892.75
2023-03-21T08:16:55.544Z,99906.72
2023-03-21T08:17:51.356Z,99910.63
2023-03-21T08:18:33.103Z,99899.84
2023-03-21T08:19:14.920Z,99908.63
2023-03-21T08:19:56.669Z,99906.69
2023-03-21T08:20:38.873Z,99911.13
2023-03-21T08:21:20.575Z,99915.38
2023-03-21T08:22:02.291Z,99899.63
2023-03-21T08:22:44.985Z,99919.38
2023-03-21T08:23:27.125Z,99909.28
2023-03-21T08:24:08.888Z,99909.66
2023-03-21T08:24:50.645Z,99913.06
2023-03-21T08:25:33.183Z,99913.53
2023-03-21T08:26:18.417Z,99920.06
2023-03-21T08:27:01.439Z,99913.41
2023-03-21T08:27:45.500Z,99925.47
2023-03-21T08:28:27.681Z,99919.13
2023-03-21T08:29:10.086Z,99915.97
2023-03-21T08:29:51.791Z,99909.56
2023-03-21T08:30:33.607Z,99918.78
2023-03-21T08:31:15.575Z,99917.81
2023-03-21T08:31:58.145Z,99923.88
2023-03-21T08:32:41.676Z,99923.56
2023-03-21T08:33:23.889Z,99917.31
2023-03-21T08:34:05.938Z,99912.47
2023-03-21T08:34:47.662Z,99915.97
2023-03-21T08:35:29.710Z,99918.81
2023-03-21T08:36:11.672Z,99913.59
2023-03-21T08:36:54.521Z,99902.59
2023-03-21T08:37:40.959Z,99923.56
2023-03-21T08:38:22.775Z,99919.25
2023-03-21T08:39:05.647Z,99916.63
2023-03-21T08:39:47.685Z,99873.38
2023-03-21T08:40:29.586Z,99913.41
2023-03-21T08:41:11.877Z,99908.06
2023-03-21T08:41:53.524Z,99913.94
2023-03-21T08:42:35.600Z,99918.81
2023-03-21T08:43:17.309Z,99901.25
2023-03-21T08:43:59.128Z,99899.47
2023-03-21T08:44:41.483Z,99899.13
2023-03-21T08:45:23.835Z,99884.06
2023-03-21T08:46:05.875Z,99909.16
2023-03-21T08:46:47.755Z,99902.84
2023-03-21T08:47:29.565Z,99888.53
2023-03-21T08:48:11.305Z,99871.28
2023-03-21T08:48:53.660Z,99905.25
2023-03-21T08:49:36.033Z,99895.88
2023-03-21T08:50:20.830Z,99906.50
2023-03-21T08:51:02.553Z,99895.56
2023-03-21T08:51:45.854Z,99893.03
2023-03-21T08:52:28.085Z,99909.19
2023-03-21T08:53:10.007Z,99900.94
2023-03-21T08:53:51.825Z,99902.41
2023-03-21T08:54:33.706Z,99891.69
2023-03-21T08:55:17.734Z,99895.00
2023-03-21T08:55:59.716Z,99895.28
2023-03-21T08:56:41.454Z,99894.75
2023-03-21T08:57:23.180Z,99886.84
2023-03-21T08:58:06.536Z,99902.97
2023-03-21T08:58:49.748Z,99889.31
2023-03-21T08:59:31.567Z,99888.63
2023-03-21T09:00:17.875Z,99902.78
2023-03-21T09:00:59.582Z,99887.13
2023-03-21T09:01:41.984Z,99895.31
2023-03-21T09:02:23.972Z,99892.13
2023-03-21T09:03:05.670Z,99897.22
2023-03-21T09:03:47.418Z,99881.88
2023-03-21T09:04:31.113Z,99890.06
2023-03-21T09:05:13.041Z,99877.13
2023-03-21T09:05:54.901Z,99887.72
2023-03-21T09:06:48.752Z,99882.53
2023-03-21T09:07:34.031Z,99875.47
2023-03-21T09:08:15.812Z,99889.81
2023-03-21T09:08:57.541Z,99895.56
2023-03-21T09:09:39.770Z,99889.56
2023-03-21T09:10:23.311Z,99885.31
2023-03-21T09:11:05.434Z,99876.44
2023-03-21T09:11:47.198Z,99884.56
2023-03-21T09:12:29.055Z,99875.31
2023-03-21T09:13:10.801Z,99878.69
2023-03-21T09:13:52.502Z,99865.88
2023-03-21T09:14:35.331Z,99884.88